Time;durP1;ratioP1;P1;durP2;ratioP2;P2;SDS_P1;SDS_P2;PMS_P1;PMS_P2;Temp;Humidity;BMP_temperature;BMP_pressure;BME280_temperature;BME280_humidity;BME280_pressure;Samples;Min_cycle;Max_cycle;Signal;HPM_P1;HPM_P2
2023/03/17 00:00:48;;;;;;;74.70;34.30;;;;;;;-3.91;78.51;99816.34;271660;1254;23350;-82
2023/03/17 00:06:59;;;;;;;78.20;34.10;;;;;;;-3.92;78.98;99816.03;270931;1256;22496;-83
2023/03/17 00:13:05;;;;;;;75.20;32.50;;;;;;;-3.89;79.38;99815.23;272689;1269;22184;-83
2023/03/17 00:19:27;;;;;;;71.80;31.50;;;;;;;-3.91;79.30;99815.34;270080;1269;22635;-82
2023/03/17 00:25:52;;;;;;;67.00;31.10;;;;;;;-3.98;79.74;99813.27;271239;1269;22654;-83
2023/03/17 00:31:55;;;;;;;83.50;35.20;;;;;;;-4.03;79.75;99809.11;272599;1269;22397;-83
2023/03/17 00:37:58;;;;;;;76.70;32.90;;;;;;;-4.06;79.88;99811.63;273700;1269;23042;-84
2023/03/17 00:44:01;;;;;;;64.90;28.80;;;;;;;-4.10;79.93;99815.78;273084;1257;22571;-83
2023/03/17 00:50:04;;;;;;;71.10;31.70;;;;;;;-4.18;78.78;99816.00;271100;1257;25484;-82
2023/03/17 00:56:30;;;;;;;76.60;33.80;;;;;;;-4.17;79.90;99819.90;271173;1268;23242;-83
2023/03/17 01:02:52;;;;;;;75.40;31.40;;;;;;;-4.21;80.14;99810.05;273235;1269;22324;-84
2023/03/17 01:08:54;;;;;;;78.20;36.10;;;;;;;-4.26;80.77;99807.45;272468;1269;22256;-83
2023/03/17 01:14:58;;;;;;;95.50;43.20;;;;;;;-4.29;80.73;99805.07;273746;1271;22324;-83
2023/03/17 01:21:21;;;;;;;97.20;42.20;;;;;;;-4.36;80.86;99810.96;273939;1254;22197;-84
2023/03/17 01:27:43;;;;;;;79.10;36.40;;;;;;;-4.44;80.67;99809.96;273805;1270;22201;-84
2023/03/17 01:33:51;;;;;;;87.90;39.10;;;;;;;-4.50;80.98;99805.70;273557;1269;23052;-84
2023/03/17 01:39:53;;;;;;;86.80;39.70;;;;;;;-4.53;81.22;99809.84;273454;1265;22803;-84
2023/03/17 01:46:28;;;;;;;92.00;42.40;;;;;;;-4.54;81.50;99806.05;273831;1269;22238;-85
2023/03/17 01:52:50;;;;;;;91.50;43.70;;;;;;;-4.60;81.33;99799.60;273562;1269;22178;-85
2023/03/17 01:58:53;;;;;;;91.90;39.80;;;;;;;-4.70;81.59;99790.98;273686;1258;22411;-85
2023/03/17 02:04:56;;;;;;;86.70;38.60;;;;;;;-4.71;81.91;99794.39;272865;1269;22331;-85
2023/03/17 02:10:58;;;;;;;90.60;43.00;;;;;;;-4.71;81.99;99786.42;273324;1269;22535;-85
2023/03/17 02:17:00;;;;;;;82.60;37.30;;;;;;;-4.74;82.32;99791.48;272084;1262;22354;-83
2023/03/17 02:23:03;;;;;;;93.40;39.40;;;;;;;-4.67;82.97;99789.08;273764;1268;22792;-84
2023/03/17 02:29:05;;;;;;;98.10;45.40;;;;;;;-4.68;82.51;99778.55;273428;1268;23112;-84
2023/03/17 02:35:08;;;;;;;95.10;41.40;;;;;;;-4.84;82.38;99771.28;273609;1269;22503;-83
2023/03/17 02:41:12;;;;;;;90.40;39.70;;;;;;;-4.90;82.38;99778.86;272464;1267;22212;-84
2023/03/17 02:47:15;;;;;;;111.90;47.10;;;;;;;-4.98;82.38;99779.77;273617;1259;22192;-83
2023/03/17 02:53:19;;;;;;;106.70;48.40;;;;;;;-5.02;82.30;99772.30;273314;1269;23682;-83
2023/03/17 02:59:23;;;;;;;105.60;47.10;;;;;;;-5.06;82.45;99773.08;273654;1269;22450;-82
2023/03/17 03:05:25;;;;;;;114.10;51.00;;;;;;;-5.15;82.53;99773.00;271063;1269;23217;-82
2023/03/17 03:11:30;;;;;;;114.00;51.30;;;;;;;-5.22;82.14;99766.02;270173;1259;22571;-81
2023/03/17 03:17:32;;;;;;;109.10;47.90;;;;;;;-5.23;82.90;99766.27;269965;1268;22566;-81
2023/03/17 03:23:34;;;;;;;95.10;42.80;;;;;;;-5.22;83.29;99773.53;270113;1269;22568;-80
2023/03/17 03:29:36;;;;;;;88.20;41.60;;;;;;;-5.26;83.41;99769.44;273052;1269;23609;-82
2023/03/17 03:35:38;;;;;;;93.60;43.30;;;;;;;-5.30;83.53;99758.55;271407;1269;22563;-82
2023/03/17 03:41:58;;;;;;;107.10;45.00;;;;;;;-5.31;83.64;99750.60;270829;1259;22561;-81
2023/03/17 03:48:00;;;;;;;104.70;44.50;;;;;;;-5.30;83.75;99733.59;271542;1259;22232;-83
2023/03/17 03:54:02;;;;;;;92.30;41.40;;;;;;;-5.30;83.75;99741.53;272958;1268;22375;-85
2023/03/17 04:00:06;;;;;;;95.30;40.70;;;;;;;-5.33;83.94;99760.56;273148;1267;23292;-85
2023/03/17 04:06:30;;;;;;;84.70;37.40;;;;;;;-5.33;84.12;99758.01;271200;1272;22320;-86
2023/03/17 04:12:33;;;;;;;87.70;37.90;;;;;;;-5.26;84.64;99754.50;270895;1272;22553;-85
2023/03/17 04:18:35;;;;;;;79.50;38.80;;;;;;;-5.23;84.77;99751.69;269851;1264;22568;-85
2023/03/17 04:24:38;;;;;;;90.00;39.70;;;;;;;-5.20;84.82;99742.90;269951;1262;22251;-85
2023/03/17 04:30:49;;;;;;;80.90;35.40;;;;;;;-5.25;84.70;99746.45;270470;1272;22668;-85
2023/03/17 04:36:51;;;;;;;83.30;36.60;;;;;;;-5.28;85.10;99759.77;271124;1269;22603;-85
2023/03/17 04:42:53;;;;;;;87.00;36.60;;;;;;;-5.28;84.95;99769.52;270829;1269;22832;-84
2023/03/17 04:48:55;;;;;;;96.60;37.20;;;;;;;-5.30;84.98;99775.16;270243;1269;118656;-84
2023/03/17 04:54:57;;;;;;;86.50;35.90;;;;;;;-5.35;84.47;99776.25;270165;1272;23067;-84
2023/03/17 05:01:00;;;;;;;83.70;36.50;;;;;;;-5.37;84.38;99764.70;270455;1259;22588;-83
2023/03/17 05:07:02;;;;;;;88.10;34.90;;;;;;;-5.38;84.71;99753.65;271810;1269;22211;-81
2023/03/17 05:13:03;;;;;;;84.00;34.20;;;;;;;-5.39;84.82;99745.79;271143;1262;22498;-83
2023/03/17 05:19:05;;;;;;;81.90;32.50;;;;;;;-5.30;85.28;99746.17;270644;1268;22599;-82
2023/03/17 05:25:07;;;;;;;70.60;32.80;;;;;;;-5.17;85.78;99761.08;269924;1269;22511;-82
2023/03/17 05:31:09;;;;;;;65.30;29.50;;;;;;;-4.93;86.13;99766.23;269864;1256;23508;-82
2023/03/17 05:37:10;;;;;;;88.50;38.50;;;;;;;-4.57;86.97;99769.05;269994;1269;22387;-82
2023/03/17 05:43:12;;;;;;;78.40;33.60;;;;;;;-4.14;87.34;99777.58;270553;1259;22510;-83
2023/03/17 05:49:14;;;;;;;69.90;31.60;;;;;;;-3.69;87.17;99780.63;271827;1257;23148;-84
2023/03/17 05:55:16;;;;;;;63.40;27.40;;;;;;;-3.30;87.32;99775.64;271750;1267;22637;-84
2023/03/17 06:01:18;;;;;;;70.90;31.40;;;;;;;-2.92;87.61;99778.02;271700;1269;23408;-84
2023/03/17 06:07:19;;;;;;;61.80;28.10;;;;;;;-2.31;88.34;99776.53;270359;1269;22570;-84
2023/03/17 06:13:21;;;;;;;62.70;29.50;;;;;;;-1.65;88.50;99778.76;269880;1269;22405;-85
2023/03/17 06:19:23;;;;;;;82.70;32.30;;;;;;;-1.04;88.36;99787.98;272085;1269;22540;-85
2023/03/17 06:25:30;;;;;;;82.20;33.70;;;;;;;-0.52;87.27;99789.16;270081;1269;25366;-85
2023/03/17 06:31:31;;;;;;;67.90;30.50;;;;;;;-0.04;86.73;99793.67;270286;1258;22352;-83
2023/03/17 06:37:34;;;;;;;59.60;30.00;;;;;;;0.35;86.05;99797.99;270893;1265;22518;-84
2023/03/17 06:43:36;;;;;;;69.10;29.60;;;;;;;0.79;86.28;99792.11;270053;1269;22632;-85
2023/03/17 06:49:37;;;;;;;315.80;128.60;;;;;;;1.36;86.73;99797.20;270937;1256;22946;-85
2023/03/17 06:55:40;;;;;;;67.10;31.70;;;;;;;1.83;85.65;99792.45;271493;1259;22536;-84
2023/03/17 07:01:43;;;;;;;65.00;29.70;;;;;;;2.09;84.84;99789.30;271047;1270;22328;-82
2023/03/17 07:07:44;;;;;;;59.20;28.10;;;;;;;2.30;84.34;99787.41;273563;1267;22461;-83
2023/03/17 07:13:46;;;;;;;54.60;28.30;;;;;;;2.56;84.06;99790.65;273633;1269;22211;-83
2023/03/17 07:19:48;;;;;;;62.30;27.30;;;;;;;2.80;83.45;99788.33;271110;1269;23613;-84
2023/03/17 07:25:51;;;;;;;51.50;25.40;;;;;;;3.04;82.90;99786.73;270148;1257;22536;-83
2023/03/17 07:31:52;;;;;;;49.90;24.20;;;;;;;3.33;82.37;99785.59;272198;1269;22496;-84
2023/03/17 07:37:54;;;;;;;53.70;24.10;;;;;;;3.73;81.66;99779.31;271602;1269;24193;-84
2023/03/17 07:43:58;;;;;;;43.70;21.20;;;;;;;4.22;80.58;99777.15;270111;1267;24246;-84
2023/03/17 07:50:00;;;;;;;53.40;26.10;;;;;;;4.71;79.14;99769.35;270790;1269;23744;-85
2023/03/17 07:56:02;;;;;;;50.10;24.60;;;;;;;5.17;78.66;99769.34;271610;1259;23344;-85
2023/03/17 08:03:00;;;;;;;39.10;19.80;;;;;;;5.79;77.47;99772.61;271919;1273;22535;-85
2023/03/17 08:09:56;;;;;;;46.90;24.90;;;;;;;6.33;76.14;99770.30;272526;1269;23348;-86
2023/03/17 08:17:33;;;;;;;42.10;21.00;;;;;;;7.06;75.25;99769.30;272587;1269;22327;-86
2023/03/17 08:24:41;;;;;;;37.50;20.80;;;;;;;7.73;73.66;99759.18;272284;1269;23433;-87
2023/03/17 08:31:40;;;;;;;42.70;20.50;;;;;;;8.08;70.58;99751.97;271608;1277;23029;-88
2023/03/17 08:37:44;;;;;;;37.80;17.70;;;;;;;8.47;70.45;99751.89;271233;1278;22533;-89
2023/03/17 08:43:46;;;;;;;28.00;14.30;;;;;;;8.92;69.21;99759.05;270325;1269;23820;-89
2023/03/17 08:49:49;;;;;;;20.00;11.20;;;;;;;9.22;69.70;99761.89;272141;1268;22384;-88
2023/03/17 08:55:51;;;;;;;25.80;11.00;;;;;;;9.34;67.43;99759.05;273799;1269;22184;-89
2023/03/17 09:01:53;;;;;;;22.30;10.10;;;;;;;9.93;64.31;99752.98;271554;1269;23033;-87
2023/03/17 09:07:55;;;;;;;19.70;9.90;;;;;;;10.57;64.33;99752.94;272222;1269;23325;-88
2023/03/17 09:13:58;;;;;;;13.50;7.20;;;;;;;11.10;64.69;99749.47;272341;1263;22355;-87
2023/03/17 09:20:25;;;;;;;14.30;5.10;;;;;;;11.47;62.36;99740.44;270187;1269;22568;-87
2023/03/17 09:26:27;;;;;;;8.00;4.30;;;;;;;11.67;58.63;99738.08;269629;1266;22530;-86
2023/03/17 09:32:29;;;;;;;9.80;4.40;;;;;;;12.22;55.66;99727.86;270172;1269;25139;-85
2023/03/17 09:39:12;;;;;;;10.40;4.60;;;;;;;11.83;49.79;99728.60;272915;1273;23061;-86
2023/03/17 09:45:58;;;;;;;7.40;3.80;;;;;;;12.12;52.21;99720.85;271204;1269;22604;-87
2023/03/17 09:52:01;;;;;;;7.00;3.30;;;;;;;12.83;51.25;99708.80;271741;1271;22279;-87
2023/03/17 09:58:03;;;;;;;5.40;3.00;;;;;;;12.99;48.83;99699.30;272795;1273;22533;-86
2023/03/17 10:04:05;;;;;;;7.10;3.50;;;;;;;13.08;46.79;99694.25;271271;1273;23472;-85
2023/03/17 10:10:35;;;;;;;7.50;3.70;;;;;;;12.96;44.32;99684.27;271565;1273;22560;-86
2023/03/17 10:16:47;;;;;;;8.00;4.30;;;;;;;13.58;43.60;99665.49;273237;1275;22232;-84
2023/03/17 10:23:02;;;;;;;6.90;3.60;;;;;;;13.73;43.22;99656.13;273082;1272;22222;-84
2023/03/17 10:29:17;;;;;;;7.10;4.20;;;;;;;13.78;43.07;99651.46;273571;1271;22675;-84
2023/03/17 10:35:40;;;;;;;6.20;3.80;;;;;;;13.85;42.29;99654.05;273954;1275;22349;-83
2023/03/17 10:42:38;;;;;;;10.60;3.90;;;;;;;14.04;41.13;99642.79;273740;1261;22364;-85
2023/03/17 10:49:26;;;;;;;6.20;3.40;;;;;;;14.58;39.37;99629.45;271918;1272;23079;-84
2023/03/17 10:56:02;;;;;;;5.40;3.10;;;;;;;14.11;37.02;99617.35;272389;1272;22202;-84
2023/03/17 11:02:42;;;;;;;6.50;2.90;;;;;;;13.86;36.44;99615.20;272155;1262;22570;-85
2023/03/17 11:08:48;;;;;;;6.30;3.10;;;;;;;13.68;34.46;99607.90;270335;1265;22559;-84
2023/03/17 11:15:06;;;;;;;8.40;3.10;;;;;;;13.42;34.61;99603.73;271530;1273;22626;-84
2023/03/17 11:21:18;;;;;;;6.40;3.30;;;;;;;13.38;32.20;99599.77;272598;1271;22866;-84
2023/03/17 11:27:31;;;;;;;6.80;3.30;;;;;;;13.36;33.61;99595.90;273423;1259;22451;-84
2023/03/17 11:34:05;;;;;;;5.30;2.80;;;;;;;13.52;33.35;99593.92;273964;1273;22974;-85
2023/03/17 11:40:18;;;;;;;4.70;2.90;;;;;;;13.94;32.03;99590.09;272976;1269;22396;-84
2023/03/17 11:46:31;;;;;;;7.10;2.80;;;;;;;13.73;30.84;99575.16;272294;1269;22882;-84
2023/03/17 11:53:11;;;;;;;9.20;3.30;;;;;;;13.45;30.53;99550.49;274108;1269;22238;-84
2023/03/17 11:59:18;;;;;;;7.80;3.10;;;;;;;13.26;30.67;99534.61;273265;1272;22480;-84
2023/03/17 12:05:25;;;;;;;4.80;2.90;;;;;;;13.37;31.42;99530.54;273764;1271;26279;-84
2023/03/17 12:11:30;;;;;;;8.20;4.00;;;;;;;13.22;30.51;99514.86;271626;1269;23525;-83
2023/03/17 12:18:15;;;;;;;7.30;3.30;;;;;;;12.90;29.89;99510.37;270890;1269;23874;-85
2023/03/17 12:24:29;;;;;;;4.60;2.60;;;;;;;12.58;29.16;99515.05;273876;1270;23129;-84
2023/03/17 12:31:07;;;;;;;5.50;2.80;;;;;;;12.59;29.96;99512.80;272997;1269;22300;-83
2023/03/17 12:37:53;;;;;;;6.70;3.00;;;;;;;12.61;30.05;99505.05;273984;1269;22430;-84
2023/03/17 12:44:56;;;;;;;4.00;2.30;;;;;;;12.57;29.05;99496.69;274041;1275;22203;-85
2023/03/17 12:51:51;;;;;;;5.60;3.00;;;;;;;12.49;28.46;99487.80;273415;1271;23859;-85
2023/03/17 12:58:22;;;;;;;7.90;3.30;;;;;;;12.38;28.35;99477.88;271491;1269;23876;-83
2023/03/17 13:04:43;;;;;;;5.30;2.90;;;;;;;12.40;27.69;99472.31;270973;1266;22716;-84
2023/03/17 13:11:29;;;;;;;6.10;3.10;;;;;;;12.48;27.40;99462.06;271161;1269;22568;-85
2023/03/17 13:18:17;;;;;;;6.30;3.50;;;;;;;12.51;27.28;99460.83;272541;1273;22332;-84
2023/03/17 13:24:52;;;;;;;9.30;3.50;;;;;;;12.41;28.26;99451.77;270785;1269;22560;-84
2023/03/17 13:30:55;;;;;;;6.20;3.50;;;;;;;12.43;28.94;99446.48;271484;1269;22335;-85
2023/03/17 13:37:48;;;;;;;6.80;3.60;;;;;;;12.38;28.21;99446.71;271837;1269;22768;-85
2023/03/17 13:50:41;;;;;;;9.90;4.10;;;;;;;12.32;29.69;99436.61;272111;1271;22402;-84
2023/03/17 13:56:44;;;;;;;7.70;3.60;;;;;;;12.36;29.76;99432.44;273580;1269;22254;-85
2023/03/17 14:03:47;;;;;;;9.20;3.90;;;;;;;12.15;29.25;99429.14;273878;1273;22193;-85
2023/03/17 14:11:00;;;;;;;7.30;3.90;;;;;;;11.99;30.26;99411.85;272654;1269;22188;-84
2023/03/17 14:17:22;;;;;;;7.00;3.50;;;;;;;12.11;30.89;99401.50;274141;1275;22489;-84
2023/03/17 14:23:54;;;;;;;6.70;3.50;;;;;;;12.16;30.73;99398.02;272987;1270;22303;-84
2023/03/17 14:30:23;;;;;;;12.00;4.40;;;;;;;12.06;31.14;99389.11;273244;1269;22190;-84
2023/03/17 14:36:42;;;;;;;11.10;4.90;;;;;;;12.03;31.45;99383.05;273793;1269;23395;-84
2023/03/17 14:43:05;;;;;;;11.10;4.70;;;;;;;11.89;31.68;99382.41;272737;1269;22383;-84
2023/03/17 14:49:15;;;;;;;9.50;4.40;;;;;;;11.65;31.98;99387.41;273865;1273;22241;-83
2023/03/17 14:55:21;;;;;;;10.10;4.50;;;;;;;11.53;32.32;99381.85;273791;1264;22205;-83
2023/03/17 15:01:36;;;;;;;9.30;3.70;;;;;;;11.58;32.60;99372.75;273921;1270;22198;-83
2023/03/17 15:07:41;;;;;;;11.20;4.40;;;;;;;11.67;32.83;99358.55;273956;1270;22245;-83
2023/03/17 15:13:55;;;;;;;8.00;4.10;;;;;;;11.60;32.70;99357.59;273732;1254;22931;-83
2023/03/17 15:20:37;;;;;;;8.80;3.60;;;;;;;11.42;32.77;99345.66;273478;1273;23970;-84
2023/03/17 15:26:39;;;;;;;7.90;3.50;;;;;;;11.19;32.83;99344.50;274066;1270;23256;-84
2023/03/17 15:33:20;;;;;;;8.80;3.90;;;;;;;11.02;32.71;99344.56;273990;1270;22374;-83
2023/03/17 15:39:24;;;;;;;7.00;3.20;;;;;;;10.81;32.70;99331.88;273933;1269;22245;-83
2023/03/17 15:45:26;;;;;;;9.70;3.70;;;;;;;10.61;32.70;99328.11;272985;1270;22534;-83
2023/03/17 15:51:32;;;;;;;9.60;4.70;;;;;;;10.42;32.87;99332.25;272377;1269;22325;-83
2023/03/17 15:57:34;;;;;;;7.40;3.60;;;;;;;10.22;32.97;99324.89;274061;1270;22250;-82
2023/03/17 16:03:57;;;;;;;9.00;4.20;;;;;;;10.08;33.09;99319.91;272819;1269;22368;-83
2023/03/17 16:10:51;;;;;;;10.50;5.10;;;;;;;9.94;33.32;99322.77;273894;1269;22423;-82
2023/03/17 16:16:54;;;;;;;8.30;4.40;;;;;;;9.83;33.37;99316.70;273906;1276;22433;-83
2023/03/17 16:23:00;;;;;;;8.00;3.80;;;;;;;9.72;33.38;99306.48;273051;1261;23026;-85
2023/03/17 16:29:11;;;;;;;10.00;3.90;;;;;;;9.58;33.56;99312.92;273857;1269;23063;-84
2023/03/17 16:35:22;;;;;;;11.90;6.00;;;;;;;9.40;33.80;99320.37;273335;1269;22180;-84
2023/03/17 16:41:45;;;;;;;14.30;5.90;;;;;;;9.18;33.93;99318.58;273876;1270;23402;-83
2023/03/17 16:47:48;;;;;;;13.50;6.10;;;;;;;8.91;34.29;99326.95;270928;1269;172105;-82
2023/03/17 16:53:50;;;;;;;12.80;5.80;;;;;;;8.66;34.65;99329.48;270590;1269;25399;-83
2023/03/17 16:59:52;;;;;;;17.70;7.10;;;;;;;8.40;34.90;99325.33;271050;1269;22595;-83
2023/03/17 17:06:33;;;;;;;28.90;12.70;;;;;;;8.20;35.11;99321.66;271582;1269;22172;-82
2023/03/17 17:12:43;;;;;;;18.10;10.50;;;;;;;8.00;35.43;99317.01;272069;1270;22547;-83
2023/03/17 17:18:46;;;;;;;13.40;7.20;;;;;;;7.81;35.67;99320.73;269885;1269;22560;-83
2023/03/17 17:24:53;;;;;;;19.70;8.30;;;;;;;7.65;36.12;99319.51;270692;1269;22337;-82
2023/03/17 17:30:57;;;;;;;17.10;8.90;;;;;;;7.49;36.33;99320.45;269767;1269;24228;-83
2023/03/17 17:36:59;;;;;;;20.90;9.60;;;;;;;7.31;36.67;99327.57;270245;1269;22551;-82
2023/03/17 17:43:01;;;;;;;23.60;11.60;;;;;;;7.04;37.02;99332.23;271309;1269;23421;-83
2023/03/17 17:49:31;;;;;;;22.30;9.90;;;;;;;6.82;37.60;99339.44;271328;1267;24189;-83
2023/03/17 17:55:56;;;;;;;26.10;10.50;;;;;;;6.61;38.13;99342.02;270661;1269;22586;-82
2023/03/17 18:01:59;;;;;;;24.40;11.60;;;;;;;6.37;38.38;99342.68;271966;1269;22537;-83
2023/03/17 18:08:02;;;;;;;26.40;12.20;;;;;;;6.10;38.70;99345.39;270501;1269;22500;-83
2023/03/17 18:14:08;;;;;;;29.70;14.20;;;;;;;5.86;39.13;99343.39;270631;1269;22546;-83
2023/03/17 18:20:12;;;;;;;33.10;13.40;;;;;;;5.67;39.51;99346.02;272148;1259;23843;-83
2023/03/17 18:26:19;;;;;;;32.80;13.70;;;;;;;5.50;39.93;99347.40;273647;1257;22302;-83
2023/03/17 18:32:48;;;;;;;36.70;14.90;;;;;;;5.34;40.25;99352.91;273727;1269;22382;-83
2023/03/17 18:38:50;;;;;;;45.40;17.80;;;;;;;5.26;40.59;99357.77;273912;1270;23342;-83
2023/03/17 18:45:00;;;;;;;42.30;19.00;;;;;;;5.18;41.11;99350.89;273751;1269;22263;-83
2023/03/17 18:51:03;;;;;;;32.90;14.70;;;;;;;5.04;41.47;99350.34;273729;1257;22366;-83
2023/03/17 18:57:26;;;;;;;30.40;14.40;;;;;;;4.86;42.31;99349.80;273833;1276;22213;-83
2023/03/17 19:03:48;;;;;;;36.30;17.30;;;;;;;4.70;43.30;99350.88;273604;1269;22347;-83
2023/03/17 19:10:04;;;;;;;41.90;18.00;;;;;;;4.49;43.36;99347.58;274000;1256;22163;-82
2023/03/17 19:16:07;;;;;;;41.40;17.40;;;;;;;4.38;43.61;99342.31;273671;1269;22324;-84
2023/03/17 19:22:09;;;;;;;46.30;18.40;;;;;;;4.27;44.02;99335.27;273923;1275;22814;-82
2023/03/17 19:28:11;;;;;;;45.30;21.30;;;;;;;4.04;44.50;99330.21;273487;1268;22320;-83
2023/03/17 19:34:34;;;;;;;46.80;21.40;;;;;;;3.84;45.07;99324.70;273737;1269;22202;-83
2023/03/17 19:40:37;;;;;;;54.60;23.20;;;;;;;3.63;45.58;99317.33;273937;1269;22376;-83
2023/03/17 19:46:38;;;;;;;60.50;27.40;;;;;;;3.35;45.94;99315.02;273768;1275;22176;-82
2023/03/17 19:53:00;;;;;;;62.40;26.40;;;;;;;3.10;46.43;99316.73;273756;1269;22557;-83
2023/03/17 19:59:02;;;;;;;86.00;32.20;;;;;;;2.99;46.94;99310.90;273726;1269;22323;-83
2023/03/17 20:05:04;;;;;;;62.90;24.70;;;;;;;2.94;47.20;99311.34;273804;1269;22240;-82
2023/03/17 20:11:06;;;;;;;47.20;20.40;;;;;;;2.87;47.51;99315.66;273929;1269;22207;-81
2023/03/17 20:17:07;;;;;;;52.10;19.70;;;;;;;2.82;47.95;99318.77;271638;1269;24147;-83
2023/03/17 20:23:09;;;;;;;77.30;32.30;;;;;;;2.79;48.28;99314.38;271077;1254;22606;-82
2023/03/17 20:29:32;;;;;;;52.40;21.40;;;;;;;2.75;48.01;99309.48;272305;1268;22375;-83
2023/03/17 20:35:34;;;;;;;49.70;22.10;;;;;;;2.69;48.01;99308.86;273618;1262;23107;-83
2023/03/17 20:41:57;;;;;;;52.50;23.60;;;;;;;2.58;48.48;99303.41;273625;1259;23440;-80
2023/03/17 20:48:00;;;;;;;47.00;21.90;;;;;;;2.44;49.19;99301.20;272066;1269;23384;-83
2023/03/17 20:54:03;;;;;;;52.10;19.10;;;;;;;2.38;49.36;99304.14;273111;1269;23504;-82
2023/03/17 21:00:07;;;;;;;46.80;20.30;;;;;;;2.33;49.81;99302.52;272681;1269;23271;-81
2023/03/17 21:06:48;;;;;;;43.90;18.30;;;;;;;2.26;50.14;99300.80;271916;1273;22429;-83
2023/03/17 21:12:53;;;;;;;43.20;17.50;;;;;;;2.19;50.55;99302.77;270992;1273;24339;-82
2023/03/17 21:18:55;;;;;;;45.40;18.30;;;;;;;2.14;50.81;99301.45;269745;1272;26073;-82
2023/03/17 21:25:37;;;;;;;42.00;18.90;;;;;;;2.08;51.24;99300.30;270392;1259;23915;-83
2023/03/17 21:32:01;;;;;;;33.60;15.90;;;;;;;1.98;51.55;99301.73;270788;1274;22275;-83
2023/03/17 21:38:03;;;;;;;39.30;17.50;;;;;;;1.86;51.75;99303.48;273574;1262;22329;-83
2023/03/17 21:44:25;;;;;;;39.10;17.60;;;;;;;1.69;52.00;99307.66;273329;1269;22326;-83
2023/03/17 21:50:47;;;;;;;39.80;16.80;;;;;;;1.52;52.49;99303.05;271748;1269;22425;-82
2023/03/17 21:56:49;;;;;;;46.90;20.10;;;;;;;1.39;52.97;99300.20;273808;1269;22459;-83
2023/03/17 22:02:51;;;;;;;53.30;22.10;;;;;;;1.26;53.28;99303.54;272222;1269;22514;-83
2023/03/17 22:08:53;;;;;;;48.10;19.80;;;;;;;1.16;53.59;99306.27;270200;1269;24182;-82
2023/03/17 22:15:15;;;;;;;42.50;18.70;;;;;;;1.11;53.75;99306.77;271137;1269;23583;-83
2023/03/17 22:21:56;;;;;;;43.50;19.50;;;;;;;1.05;54.34;99308.13;273551;1269;22210;-82
2023/03/17 22:28:10;;;;;;;43.50;20.10;;;;;;;0.94;54.56;99308.20;270453;1260;23723;-82
2023/03/17 22:34:11;;;;;;;48.80;19.60;;;;;;;0.82;54.77;99310.66;270641;1269;22543;-82
2023/03/17 22:40:21;;;;;;;45.20;20.50;;;;;;;0.75;55.05;99307.05;270879;1267;23428;-81
2023/03/17 22:46:23;;;;;;;41.00;18.90;;;;;;;0.69;55.00;99305.03;272317;1268;22187;-82
2023/03/17 22:52:25;;;;;;;49.70;20.00;;;;;;;0.63;55.57;99304.52;273998;1257;22203;-81
2023/03/17 22:58:27;;;;;;;46.20;19.10;;;;;;;0.56;56.09;99305.09;273746;1260;23201;-83
2023/03/17 23:04:29;;;;;;;41.40;18.60;;;;;;;0.48;56.52;99304.03;274104;1272;22989;-82
2023/03/17 23:10:32;;;;;;;56.40;22.60;;;;;;;0.36;56.87;99301.34;273830;1271;22301;-83
2023/03/17 23:16:34;;;;;;;44.60;21.30;;;;;;;0.21;57.21;99299.73;273561;1269;22194;-83
2023/03/17 23:23:00;;;;;;;39.00;18.20;;;;;;;0.19;57.82;99305.82;273842;1269;22187;-82
2023/03/17 23:29:08;;;;;;;41.90;19.20;;;;;;;0.19;58.99;99308.61;273830;1269;22299;-83
2023/03/17 23:35:12;;;;;;;47.60;20.80;;;;;;;0.11;59.08;99305.70;271635;1263;22527;-84
2023/03/17 23:41:14;;;;;;;48.60;22.20;;;;;;;0.00;58.74;99301.70;270980;1269;22614;-82
2023/03/17 23:47:16;;;;;;;47.00;20.10;;;;;;;-0.16;58.48;99294.86;270317;1269;22541;-82
2023/03/17 23:53:22;;;;;;;44.70;18.50;;;;;;;-0.21;59.28;99292.64;270718;1257;23064;-83
2023/03/17 23:59:25;;;;;;;37.60;18.30;;;;;;;-0.21;59.22;99287.80;272384;1269;22369;-82
